Terminal Aerodrome Forecast
Issued by NWS Shreveport, LA

Home | Current Version | Previous Version | Text Only | Print | Product List | Glossary On
Versions: 1 2 3 4 5 6 7 8 9 10 11 12 13 14 15
000
FTUS44 KSHV 270536
TAFSHV
TAF
KSHV 270536Z 2706/2806 12003KT P6SM SCT050 SCT250
      TEMPO 2711/2714 6SM HZ BKN015
     FM271400 VRB04KT P6SM SCT020 BKN140 BKN250
     FM271600 VRB06KT P6SM VCTS BKN035CB BKN140 OVC250
      TEMPO 2718/2722 VRB05KT 5SM -TSRA BR OVC040CB
     FM280000 VRB05KT P6SM VCTS SCT050CB OVC100=

USA.gov is the U.S. government's official web portal to all federal, state and local government web resources and services.